createdAt,value
2018-04-15T00:01:12.040Z,81.01
2018-04-15T00:03:45.671Z,80.69
2018-04-15T00:06:19.480Z,82.18
2018-04-15T00:08:53.142Z,82.28
2018-04-15T00:11:26.832Z,82.67
2018-04-15T00:14:00.369Z,82.54
2018-04-15T00:16:33.952Z,83.11
2018-04-15T00:19:07.532Z,83.13
2018-04-15T00:21:41.103Z,83.39
2018-04-15T00:24:14.767Z,83.72
2018-04-15T00:26:48.420Z,83.86
2018-04-15T00:29:22.419Z,84.16
2018-04-15T00:31:56.082Z,84.68
2018-04-15T00:34:29.753Z,85.03
2018-04-15T00:37:03.315Z,84.47
2018-04-15T00:39:36.964Z,84.59
2018-04-15T00:42:10.496Z,84.77
2018-04-15T00:44:44.318Z,84.93
2018-04-15T00:47:17.980Z,85.54
2018-04-15T00:49:51.512Z,85.38
2018-04-15T00:52:25.096Z,85.76
2018-04-15T00:54:58.645Z,85.63
2018-04-15T00:57:32.208Z,85.97
2018-04-15T01:00:05.745Z,85.91
2018-04-15T01:02:39.344Z,86.51
2018-04-15T01:05:12.905Z,86.19
2018-04-15T01:07:46.616Z,86.33
2018-04-15T01:10:20.483Z,86.27
2018-04-15T01:12:54.149Z,86.86
2018-04-15T01:15:27.983Z,86.23
2018-04-15T01:18:01.661Z,86.68
2018-04-15T01:20:35.407Z,87.14
2018-04-15T01:23:09.016Z,87.07
2018-04-15T01:25:42.556Z,86.98
2018-04-15T01:28:16.158Z,86.90
2018-04-15T01:30:49.792Z,86.94
2018-04-15T01:33:23.347Z,87.35
2018-04-15T01:35:56.916Z,87.62
2018-04-15T01:38:30.530Z,87.48
2018-04-15T01:41:04.125Z,87.64
2018-04-15T01:43:42.707Z,87.81
2018-04-15T01:46:16.236Z,88.41
2018-04-15T01:48:49.975Z,88.72
2018-04-15T01:51:23.556Z,88.43
2018-04-15T01:53:57.153Z,88.35
2018-04-15T01:56:30.716Z,88.62
2018-04-15T01:59:04.281Z,88.44
2018-04-15T02:01:37.944Z,88.45
2018-04-15T02:04:11.608Z,88.87
2018-04-15T02:06:45.159Z,88.81
2018-04-15T02:09:18.833Z,88.74
2018-04-15T02:11:52.399Z,88.58
2018-04-15T02:14:26.055Z,88.81
2018-04-15T02:16:59.718Z,89.09
2018-04-15T02:19:33.316Z,89.19
2018-04-15T02:22:07.004Z,89.22
2018-04-15T02:24:40.559Z,88.72
2018-04-15T02:27:14.139Z,89.21
2018-04-15T02:29:47.949Z,89.34
2018-04-15T02:32:21.563Z,89.36
2018-04-15T02:34:55.136Z,89.59
2018-04-15T02:37:28.723Z,89.77
2018-04-15T02:40:02.281Z,89.56
2018-04-15T02:42:36.036Z,89.27
2018-04-15T02:45:09.599Z,89.61
2018-04-15T02:47:43.344Z,89.41
2018-04-15T02:50:16.899Z,89.53
2018-04-15T02:52:50.508Z,89.22
2018-04-15T02:55:24.085Z,89.48
2018-04-15T02:57:57.675Z,89.82
2018-04-15T03:00:31.308Z,89.97
2018-04-15T03:03:04.903Z,90.15
2018-04-15T03:05:38.661Z,90.01
2018-04-15T03:08:12.375Z,89.50
2018-04-15T03:10:46.019Z,89.61
2018-04-15T03:13:19.588Z,89.35
2018-04-15T03:15:53.135Z,89.18
2018-04-15T03:18:26.728Z,88.92
2018-04-15T03:21:00.303Z,88.83
2018-04-15T03:23:34.074Z,89.01
2018-04-15T03:26:07.744Z,89.03
2018-04-15T03:28:41.459Z,89.50
2018-04-15T03:31:15.288Z,89.79
2018-04-15T03:33:49.011Z,90.02
2018-04-15T03:36:22.551Z,89.98
2018-04-15T03:38:56.276Z,89.50
2018-04-15T03:41:29.843Z,89.38
2018-04-15T03:44:03.360Z,89.02
2018-04-15T03:46:36.943Z,88.78
2018-04-15T03:49:10.476Z,89.37
2018-04-15T03:51:44.174Z,89.85
2018-04-15T03:54:17.740Z,90.25
2018-04-15T03:56:51.296Z,90.25
2018-04-15T03:59:24.883Z,89.86
2018-04-15T04:01:58.452Z,89.81
2018-04-15T04:04:31.991Z,90.25
2018-04-15T04:07:05.654Z,90.33
2018-04-15T04:09:39.428Z,90.16
2018-04-15T04:12:12.995Z,90.61
2018-04-15T04:14:46.624Z,90.82
2018-04-15T04:17:20.372Z,90.38
2018-04-15T04:20:05.991Z,90.38
2018-04-15T04:22:52.442Z,90.79
2018-04-15T04:25:36.857Z,90.75
2018-04-15T04:28:10.500Z,90.95
2018-04-15T04:30:44.035Z,91.00
2018-04-15T04:33:17.592Z,90.98
2018-04-15T04:35:51.167Z,91.21
2018-04-15T04:38:24.732Z,91.21
2018-04-15T04:40:58.489Z,91.63
2018-04-15T04:43:32.036Z,91.72
2018-04-15T04:46:05.619Z,91.66
2018-04-15T04:48:39.199Z,91.74
2018-04-15T04:51:12.900Z,91.86
2018-04-15T04:53:46.583Z,91.88
2018-04-15T04:56:20.273Z,91.78
2018-04-15T04:58:53.962Z,91.43
2018-04-15T05:01:27.732Z,91.80
2018-04-15T05:04:01.494Z,91.82
2018-04-15T05:06:35.299Z,91.75
2018-04-15T05:09:08.892Z,91.91
2018-04-15T05:11:42.648Z,92.21
2018-04-15T05:14:16.359Z,92.30
2018-04-15T05:16:49.973Z,92.55
2018-04-15T05:19:23.539Z,92.81
2018-04-15T05:21:57.105Z,92.82
2018-04-15T05:24:30.720Z,92.65
2018-04-15T05:27:04.304Z,92.35
2018-04-15T05:29:37.907Z,93.20
2018-04-15T05:32:11.701Z,93.14
2018-04-15T05:34:45.196Z,93.01
2018-04-15T05:37:18.736Z,93.18
2018-04-15T05:39:52.436Z,92.92
2018-04-15T05:42:26.220Z,93.04
2018-04-15T05:44:59.816Z,93.03
2018-04-15T05:47:33.426Z,93.13
2018-04-15T05:50:06.966Z,93.14
2018-04-15T05:52:40.598Z,92.24
2018-04-15T05:55:14.286Z,92.08
2018-04-15T05:57:48.090Z,89.87
2018-04-15T06:00:21.779Z,87.79
2018-04-15T06:02:55.580Z,88.35
2018-04-15T06:05:29.170Z,88.17
2018-04-15T06:08:02.733Z,89.39
2018-04-15T06:10:36.203Z,89.25
2018-04-15T06:13:09.670Z,89.86
2018-04-15T06:15:43.244Z,90.78
2018-04-15T06:18:16.757Z,90.83
2018-04-15T06:20:50.689Z,91.25
2018-04-15T06:23:24.343Z,91.01
2018-04-15T06:25:57.859Z,90.74
2018-04-15T06:28:31.636Z,90.71
2018-04-15T06:31:05.395Z,90.79
2018-04-15T06:33:39.126Z,90.86
2018-04-15T06:36:12.796Z,90.52
2018-04-15T06:38:46.336Z,90.37
2018-04-15T06:41:19.964Z,90.18
2018-04-15T06:43:53.531Z,89.97
2018-04-15T06:46:27.091Z,90.01
2018-04-15T06:49:00.891Z,90.38
2018-04-15T06:51:34.519Z,90.15
2018-04-15T06:54:08.044Z,89.39
2018-04-15T06:56:41.545Z,88.85
2018-04-15T06:59:15.290Z,87.66
2018-04-15T07:01:49.044Z,88.36
2018-04-15T07:04:22.792Z,89.02
2018-04-15T07:06:56.564Z,86.22
2018-04-15T07:09:30.207Z,85.73
2018-04-15T07:12:03.820Z,86.36
2018-04-15T07:14:37.520Z,83.21
2018-04-15T07:17:11.272Z,83.50
2018-04-15T07:19:44.787Z,81.69
2018-04-15T07:22:18.475Z,82.27
2018-04-15T07:24:52.251Z,82.85
2018-04-15T07:27:25.999Z,83.81
2018-04-15T07:29:59.652Z,82.64
2018-04-15T07:32:33.277Z,83.87
2018-04-15T07:35:06.903Z,83.72
2018-04-15T07:37:40.576Z,83.00
2018-04-15T07:40:14.108Z,82.89
2018-04-15T07:42:47.911Z,83.55
2018-04-15T07:45:21.696Z,82.38
2018-04-15T07:47:55.304Z,82.92
2018-04-15T07:50:28.874Z,82.83
2018-04-15T07:53:02.624Z,80.82
2018-04-15T07:55:36.152Z,80.17
2018-04-15T07:58:10.223Z,77.57
2018-04-15T08:00:43.887Z,76.31
2018-04-15T08:03:17.720Z,69.13
2018-04-15T08:05:51.246Z,69.04
2018-04-15T08:08:24.884Z,67.13
2018-04-15T08:10:58.412Z,67.39
2018-04-15T08:13:32.193Z,68.84
2018-04-15T08:16:05.727Z,64.34
2018-04-15T08:18:39.304Z,59.72
2018-04-15T08:21:12.865Z,59.99
2018-04-15T08:23:46.579Z,64.74
2018-04-15T08:26:20.136Z,68.19
2018-04-15T08:28:53.723Z,66.79
2018-04-15T08:31:27.345Z,72.17
2018-04-15T08:34:01.048Z,74.61
2018-04-15T08:36:34.610Z,73.67
2018-04-15T08:39:08.288Z,64.49
2018-04-15T08:41:41.894Z,60.34
2018-04-15T08:44:15.455Z,57.19
2018-04-15T08:46:48.975Z,49.14
2018-04-15T08:49:22.776Z,45.63
2018-04-15T08:51:56.428Z,51.62
2018-04-15T08:54:30.028Z,52.48
2018-04-15T08:57:03.640Z,50.33
2018-04-15T08:59:37.200Z,46.19
2018-04-15T09:02:10.925Z,46.06
2018-04-15T09:04:44.630Z,45.60
2018-04-15T09:07:18.169Z,44.66
2018-04-15T09:09:51.891Z,50.90
2018-04-15T09:12:25.427Z,52.99
2018-04-15T09:14:59.060Z,53.24
2018-04-15T09:17:32.619Z,49.08
2018-04-15T09:20:06.444Z,43.66
2018-04-15T09:22:40.008Z,46.28
2018-04-15T09:25:13.661Z,51.32
2018-04-15T09:27:47.224Z,47.46
2018-04-15T09:30:20.855Z,40.07
2018-04-15T09:32:54.627Z,41.09
2018-04-15T09:35:28.340Z,36.06
2018-04-15T09:38:02.140Z,40.21
2018-04-15T09:40:35.834Z,38.89
2018-04-15T09:43:09.615Z,40.20
2018-04-15T09:45:43.199Z,42.89
2018-04-15T09:48:16.783Z,41.98
2018-04-15T09:50:50.473Z,42.67
2018-04-15T09:53:24.264Z,47.33
2018-04-15T09:55:58.047Z,54.82
2018-04-15T09:58:31.552Z,56.22
2018-04-15T10:01:05.037Z,56.33
2018-04-15T10:03:38.575Z,54.88
2018-04-15T10:06:12.351Z,58.39
2018-04-15T10:08:45.855Z,57.30
2018-04-15T10:11:19.670Z,57.89
2018-04-15T10:13:53.228Z,55.08
2018-04-15T10:16:26.964Z,55.91
2018-04-15T10:19:00.511Z,56.74
2018-04-15T10:21:34.196Z,55.89
2018-04-15T10:24:07.815Z,57.55
2018-04-15T10:26:41.504Z,57.62
2018-04-15T10:29:15.176Z,52.50
2018-04-15T10:31:48.852Z,47.12
2018-04-15T10:34:22.416Z,41.12
2018-04-15T10:36:56.212Z,38.48
2018-04-15T10:39:29.825Z,35.12
2018-04-15T10:42:03.452Z,34.30
2018-04-15T10:44:37.064Z,37.08
2018-04-15T10:53:09.847Z,35.71
2018-04-15T10:55:43.448Z,35.19
2018-04-15T10:58:18.032Z,38.87
2018-04-15T11:00:51.703Z,36.79
2018-04-15T11:03:25.532Z,33.99
2018-04-15T11:05:59.074Z,34.38
2018-04-15T11:08:32.801Z,38.08
2018-04-15T11:11:06.311Z,41.02
2018-04-15T11:13:40.102Z,40.92
2018-04-15T11:16:13.924Z,43.14
2018-04-15T11:18:47.504Z,43.79
2018-04-15T11:21:21.288Z,42.52
2018-04-15T11:23:54.881Z,41.37
2018-04-15T11:26:28.558Z,45.77
2018-04-15T11:29:02.165Z,47.05
2018-04-15T11:31:35.892Z,46.04
2018-04-15T11:34:09.458Z,45.13
2018-04-15T11:36:43.014Z,44.12
2018-04-15T11:39:16.612Z,48.10
2018-04-15T11:41:50.395Z,48.30
2018-04-15T11:44:23.953Z,47.25
2018-04-15T11:46:57.558Z,47.31
2018-04-15T11:49:31.349Z,44.79
2018-04-15T11:52:04.900Z,45.32
2018-04-15T11:54:38.508Z,46.56
2018-04-15T11:57:12.059Z,47.89
2018-04-15T11:59:45.735Z,47.78
2018-04-15T12:02:19.422Z,47.70
2018-04-15T12:04:53.136Z,50.42
2018-04-15T12:07:26.760Z,49.31
2018-04-15T12:10:00.295Z,51.24
2018-04-15T12:12:33.956Z,49.20
2018-04-15T12:15:07.508Z,47.61
2018-04-15T12:17:44.060Z,46.87
2018-04-15T12:20:17.914Z,47.86
2018-04-15T12:22:51.595Z,47.27
2018-04-15T12:25:25.284Z,45.97
2018-04-15T12:27:58.948Z,47.82
2018-04-15T12:30:32.620Z,47.03
2018-04-15T12:33:06.165Z,48.44
2018-04-15T12:35:39.970Z,44.62
2018-04-15T12:38:13.647Z,46.21
2018-04-15T12:40:47.259Z,43.07
2018-04-15T12:43:20.822Z,44.61
2018-04-15T12:45:54.583Z,45.00
2018-04-15T12:48:28.255Z,44.64
2018-04-15T12:51:01.979Z,47.64
2018-04-15T12:53:35.807Z,47.76
2018-04-15T12:56:09.347Z,47.99
2018-04-15T12:58:43.003Z,47.42
2018-04-15T13:01:16.748Z,44.95
2018-04-15T13:03:50.519Z,44.93
2018-04-15T13:06:24.616Z,46.60
2018-04-15T13:08:58.159Z,47.48
2018-04-15T13:11:31.920Z,45.90
2018-04-15T13:14:05.415Z,45.88
2018-04-15T13:16:39.020Z,45.93
2018-04-15T13:19:12.925Z,47.21
2018-04-15T13:21:46.581Z,46.21
2018-04-15T13:24:20.197Z,43.73
2018-04-15T13:26:53.812Z,45.43
2018-04-15T13:29:27.472Z,45.21
2018-04-15T13:32:01.230Z,44.78
2018-04-15T13:34:34.819Z,41.80
2018-04-15T13:37:08.399Z,40.88
2018-04-15T13:39:42.088Z,42.04
2018-04-15T13:42:15.832Z,41.46
2018-04-15T13:44:49.652Z,41.14
2018-04-15T13:47:23.244Z,41.38
2018-04-15T13:49:57.039Z,40.81
2018-04-15T13:52:30.563Z,41.13
2018-04-15T13:55:04.312Z,40.74
2018-04-15T13:57:37.916Z,40.11
2018-04-15T14:00:11.550Z,41.86
2018-04-15T14:02:45.091Z,41.61
2018-04-15T14:05:18.826Z,41.81
2018-04-15T14:07:52.703Z,41.55
2018-04-15T14:10:26.492Z,42.82
2018-04-15T14:13:00.189Z,42.10
2018-04-15T14:15:33.761Z,41.77
2018-04-15T14:18:07.480Z,41.89
2018-04-15T14:20:41.168Z,41.98
2018-04-15T14:23:15.053Z,43.82
2018-04-15T14:25:48.755Z,43.11
2018-04-15T14:28:22.283Z,43.43
2018-04-15T14:30:56.085Z,43.38
2018-04-15T14:33:29.716Z,43.20
2018-04-15T14:36:03.223Z,42.01
2018-04-15T14:38:37.032Z,42.51
2018-04-15T14:41:10.652Z,44.04
2018-04-15T14:43:44.209Z,40.60
2018-04-15T14:46:17.794Z,36.29
2018-04-15T14:48:51.385Z,35.94
2018-04-15T14:51:25.071Z,35.37
2018-04-15T14:53:58.904Z,32.92
2018-04-15T14:56:32.526Z,32.62
2018-04-15T14:59:06.115Z,35.14
2018-04-15T15:01:39.619Z,38.04
2018-04-15T15:04:13.238Z,40.71
2018-04-15T15:06:46.968Z,41.53
2018-04-15T15:09:20.512Z,42.12
2018-04-15T15:11:54.131Z,42.35
2018-04-15T15:14:27.817Z,42.07
2018-04-15T15:17:01.506Z,41.49
2018-04-15T15:19:35.202Z,42.25
2018-04-15T15:22:09.144Z,44.03
2018-04-15T15:24:59.056Z,44.12
2018-04-15T15:27:33.116Z,45.40
2018-04-15T15:30:06.664Z,45.65
2018-04-15T15:32:40.308Z,44.56
2018-04-15T15:35:14.019Z,45.58
2018-04-15T15:37:47.608Z,46.70
2018-04-15T15:40:21.431Z,46.04
2018-04-15T15:42:55.011Z,46.44
2018-04-15T15:45:28.599Z,45.64
2018-04-15T15:48:02.212Z,45.68
2018-04-15T15:50:35.728Z,47.70
2018-04-15T15:53:09.382Z,47.74
2018-04-15T15:55:43.064Z,48.57
2018-04-15T15:58:16.720Z,47.76
2018-04-15T16:00:50.499Z,47.53
2018-04-15T16:03:24.212Z,46.23
2018-04-15T16:05:57.784Z,47.67
2018-04-15T16:08:31.413Z,47.87
2018-04-15T16:11:06.131Z,50.51
2018-04-15T16:13:39.705Z,47.33
2018-04-15T16:16:13.243Z,45.64
2018-04-15T16:18:46.884Z,45.21
2018-04-15T16:21:20.698Z,45.68
2018-04-15T16:23:54.455Z,45.72
2018-04-15T16:26:27.988Z,46.23
2018-04-15T16:29:01.519Z,46.11
2018-04-15T16:31:35.332Z,45.16
2018-04-15T16:34:08.902Z,46.03
2018-04-15T16:36:42.471Z,46.67
2018-04-15T16:39:16.042Z,47.29
2018-04-15T16:41:49.760Z,46.69
2018-04-15T16:44:23.269Z,48.02
2018-04-15T16:46:56.756Z,47.67
2018-04-15T16:49:30.268Z,47.24
2018-04-15T16:52:03.995Z,48.33
2018-04-15T16:54:37.511Z,47.85
2018-04-15T16:57:11.088Z,48.60
2018-04-15T16:59:44.655Z,48.59
2018-04-15T17:02:18.411Z,49.20
2018-04-15T17:04:52.015Z,49.03
2018-04-15T17:07:25.840Z,48.80
2018-04-15T17:09:59.348Z,49.06
2018-04-15T17:12:32.973Z,50.90
2018-04-15T17:15:06.666Z,51.54
2018-04-15T17:17:40.175Z,50.96
2018-04-15T17:20:13.905Z,50.49
2018-04-15T17:22:47.620Z,51.34
2018-04-15T17:25:21.223Z,51.49
2018-04-15T17:27:54.977Z,53.15
2018-04-15T17:30:28.667Z,52.70
2018-04-15T17:33:02.205Z,52.33
2018-04-15T17:35:35.700Z,53.06
2018-04-15T17:38:09.500Z,53.17
2018-04-15T17:40:43.227Z,53.56
2018-04-15T17:43:17.133Z,54.84
2018-04-15T17:45:50.797Z,54.68
2018-04-15T17:48:24.572Z,54.54
2018-04-15T17:50:58.165Z,55.07
2018-04-15T17:53:31.792Z,56.15
2018-04-15T17:56:05.276Z,57.64
2018-04-15T17:58:38.904Z,58.55
2018-04-15T18:01:12.589Z,58.10
2018-04-15T18:03:46.156Z,58.33
2018-04-15T18:06:19.712Z,58.68
2018-04-15T18:08:53.489Z,58.69
2018-04-15T18:11:27.090Z,59.26
2018-04-15T18:14:00.819Z,59.91
2018-04-15T18:16:34.352Z,61.01
2018-04-15T18:19:07.892Z,60.47
2018-04-15T18:21:41.883Z,60.08
2018-04-15T18:24:15.489Z,59.54
2018-04-15T18:26:49.171Z,60.39
2018-04-15T18:29:22.851Z,59.79
2018-04-15T18:31:56.544Z,60.34
2018-04-15T18:34:30.309Z,60.17
2018-04-15T18:37:03.865Z,61.33
2018-04-15T18:39:37.443Z,61.21
2018-04-15T18:42:11.248Z,61.44
2018-04-15T18:44:44.823Z,61.57
2018-04-15T18:47:18.344Z,61.46
2018-04-15T18:49:52.165Z,61.68
2018-04-15T18:52:25.810Z,61.83
2018-04-15T18:54:59.324Z,61.75
2018-04-15T18:57:32.891Z,62.09
2018-04-15T19:00:06.580Z,62.49
2018-04-15T19:02:40.355Z,62.49
2018-04-15T19:05:13.968Z,62.17
2018-04-15T19:07:47.636Z,62.69
2018-04-15T19:10:21.263Z,62.71
2018-04-15T19:12:54.768Z,62.64
2018-04-15T19:15:28.617Z,63.31
2018-04-15T19:18:02.472Z,63.43
2018-04-15T19:20:36.197Z,63.31
2018-04-15T19:23:09.675Z,64.04
2018-04-15T19:25:43.715Z,64.36
2018-04-15T19:28:17.439Z,64.83
2018-04-15T19:30:51.208Z,64.39
2018-04-15T19:33:24.763Z,64.84
2018-04-15T19:35:58.360Z,65.01
2018-04-15T19:38:31.872Z,65.56
2018-04-15T19:41:05.599Z,65.75
2018-04-15T19:43:39.260Z,65.78
2018-04-15T19:46:12.784Z,65.75
2018-04-15T19:48:46.389Z,65.13
2018-04-15T19:51:20.217Z,65.27
2018-04-15T19:53:53.752Z,64.74
2018-04-15T19:56:27.232Z,64.67
2018-04-15T19:59:00.844Z,65.46
2018-04-15T20:01:34.620Z,65.90
2018-04-15T20:04:08.181Z,66.38
2018-04-15T20:06:41.989Z,67.29
2018-04-15T20:09:15.620Z,67.16
2018-04-15T20:11:49.447Z,67.64
2018-04-15T20:14:23.144Z,68.37
2018-04-15T20:16:57.221Z,69.19
2018-04-15T20:19:30.836Z,69.94
2018-04-15T20:22:04.421Z,70.62
2018-04-15T20:24:38.404Z,70.47
2018-04-15T20:27:12.073Z,70.45
2018-04-15T20:29:45.702Z,70.41
2018-04-15T20:32:19.597Z,70.18
2018-04-15T20:34:53.461Z,69.99
2018-04-15T20:37:27.141Z,69.59
2018-04-15T20:40:00.880Z,69.40
2018-04-15T20:42:34.473Z,68.98
2018-04-15T20:45:08.170Z,69.11
2018-04-15T20:47:42.017Z,68.84
2018-04-15T20:50:15.644Z,68.60
2018-04-15T20:52:49.244Z,69.03
2018-04-15T20:55:23.021Z,69.37
2018-04-15T20:57:56.699Z,68.93
2018-04-15T21:00:30.405Z,67.06
2018-04-15T21:03:04.125Z,66.04
2018-04-15T21:05:37.837Z,64.93
2018-04-15T21:08:11.393Z,65.18
2018-04-15T21:10:45.128Z,65.46
2018-04-15T21:13:18.703Z,65.41
2018-04-15T21:15:52.565Z,66.01
2018-04-15T21:18:26.180Z,66.36
2018-04-15T21:20:59.921Z,66.71
2018-04-15T21:23:33.673Z,67.00
2018-04-15T21:26:07.328Z,67.22
2018-04-15T21:28:41.081Z,66.80
2018-04-15T21:31:14.784Z,66.62
2018-04-15T21:33:48.461Z,66.57
2018-04-15T21:36:22.160Z,66.73
2018-04-15T21:38:55.948Z,66.48
2018-04-15T21:41:29.604Z,66.34
2018-04-15T21:44:03.325Z,66.56
2018-04-15T21:46:37.049Z,66.86
2018-04-15T21:49:10.733Z,67.46
2018-04-15T21:51:44.269Z,68.05
2018-04-15T21:54:18.020Z,69.44
2018-04-15T21:56:51.726Z,69.86
2018-04-15T21:59:25.355Z,70.50
2018-04-15T22:01:59.110Z,71.29
2018-04-15T22:04:32.836Z,71.47
2018-04-15T22:07:06.509Z,70.68
2018-04-15T22:09:40.312Z,69.97
2018-04-15T22:12:14.852Z,68.74
2018-04-15T22:14:48.429Z,68.87
2018-04-15T22:17:22.075Z,68.60
2018-04-15T22:19:55.933Z,69.04
2018-04-15T22:22:29.705Z,68.18
2018-04-15T22:25:03.444Z,68.09
2018-04-15T22:27:37.187Z,68.05
2018-04-15T22:30:10.785Z,68.51
2018-04-15T22:32:44.393Z,69.53
2018-04-15T22:35:18.360Z,70.12
2018-04-15T22:37:52.004Z,69.80
2018-04-15T22:40:25.654Z,69.50
2018-04-15T22:42:59.227Z,70.04
2018-04-15T22:45:33.008Z,70.23
2018-04-15T22:48:06.616Z,69.17
2018-04-15T22:50:40.284Z,68.89
2018-04-15T22:53:13.840Z,68.67
2018-04-15T22:55:47.399Z,68.40
2018-04-15T22:58:40.802Z,68.35
2018-04-15T23:01:15.294Z,68.48
2018-04-15T23:03:48.997Z,68.69
2018-04-15T23:06:22.737Z,69.21
2018-04-15T23:08:56.497Z,69.43
2018-04-15T23:11:30.188Z,69.57
2018-04-15T23:14:03.915Z,69.79
2018-04-15T23:16:37.645Z,69.78
2018-04-15T23:19:11.233Z,69.60
2018-04-15T23:21:44.975Z,69.25
2018-04-15T23:42:07.068Z,69.12
2018-04-15T23:44:40.967Z,69.37
2018-04-15T23:47:14.596Z,69.64
2018-04-15T23:49:48.155Z,69.89
2018-04-15T23:52:21.928Z,70.14
2018-04-15T23:54:55.464Z,70.14
2018-04-15T23:57:29.028Z,70.15
